sensor_id;sensor_type;location;lat;lon;timestamp;P1;P2;P0
72918;PMS7003;61063;55.700;26.994;2022-10-31T00:04:25;0.4;0;0
72918;PMS7003;61063;55.700;26.994;2022-10-31T00:09:37;0.3;0.1;0
72918;PMS7003;61063;55.700;26.994;2022-10-31T00:14:39;0.8;0;0
72918;PMS7003;61063;55.700;26.994;2022-10-31T00:19:39;0.7;0.1;0
72918;PMS7003;61063;55.700;26.994;2022-10-31T00:24:25;0.3;0.1;0
72918;PMS7003;61063;55.700;26.994;2022-10-31T00:29:25;0;0;0
72918;PMS7003;61063;55.700;26.994;2022-10-31T00:34:01;0.1;0;0
72918;PMS7003;61063;55.700;26.994;2022-10-31T00:39:25;0.9;0;0
72918;PMS7003;61063;55.700;26.994;2022-10-31T00:44:13;0.5;0;0
72918;PMS7003;61063;55.700;26.994;2022-10-31T00:49:39;0.3;0;0
72918;PMS7003;61063;55.700;26.994;2022-10-31T00:54:11;0;0;0
72918;PMS7003;61063;55.700;26.994;2022-10-31T00:59:17;0.4;0;0
72918;PMS7003;61063;55.700;26.994;2022-10-31T01:04:01;0;0;0
72918;PMS7003;61063;55.700;26.994;2022-10-31T01:09:15;0.3;0;0
72918;PMS7003;61063;55.700;26.994;2022-10-31T01:14:05;0.1;0;0
72918;PMS7003;61063;55.700;26.994;2022-10-31T01:19:25;0.1;0;0
72918;PMS7003;61063;55.700;26.994;2022-10-31T01:24:39;0.1;0;0
72918;PMS7003;61063;55.700;26.994;2022-10-31T01:29:41;0.5;0;0
72918;PMS7003;61063;55.700;26.994;2022-10-31T01:34:41;0.4;0;0
72918;PMS7003;61063;55.700;26.994;2022-10-31T01:39:27;0.1;0;0
72918;PMS7003;61063;55.700;26.994;2022-10-31T01:44:52;0.2;0;0
72918;PMS7003;61063;55.700;26.994;2022-10-31T01:49:01;0.7;0;0
72918;PMS7003;61063;55.700;26.994;2022-10-31T01:54:44;0;0;0
72918;PMS7003;61063;55.700;26.994;2022-10-31T01:59:17;0.1;0;0
72918;PMS7003;61063;55.700;26.994;2022-10-31T02:04:43;0.1;0;0
72918;PMS7003;61063;55.700;26.994;2022-10-31T02:09:01;0.1;0;0
72918;PMS7003;61063;55.700;26.994;2022-10-31T02:14:43;0.2;0;0
72918;PMS7003;61063;55.700;26.994;2022-10-31T02:19:18;0.4;0;0
72918;PMS7003;61063;55.700;26.994;2022-10-31T02:24:27;0.2;0;0
72918;PMS7003;61063;55.700;26.994;2022-10-31T02:29:35;0.4;0;0
72918;PMS7003;61063;55.700;26.994;2022-10-31T02:34:28;0.4;0;0
72918;PMS7003;61063;55.700;26.994;2022-10-31T02:39:42;0.1;0;0
72918;PMS7003;61063;55.700;26.994;2022-10-31T02:44:44;0.3;0;0
72918;PMS7003;61063;55.700;26.994;2022-10-31T02:49:43;0.2;0;0
72918;PMS7003;61063;55.700;26.994;2022-10-31T02:54:27;0.2;0;0
72918;PMS7003;61063;55.700;26.994;2022-10-31T02:59:44;0.2;0;0
72918;PMS7003;61063;55.700;26.994;2022-10-31T03:04:09;0.2;0;0
72918;PMS7003;61063;55.700;26.994;2022-10-31T03:09:42;0.4;0.1;0
72918;PMS7003;61063;55.700;26.994;2022-10-31T03:14:17;0.3;0;0
72918;PMS7003;61063;55.700;26.994;2022-10-31T03:19:43;0.4;0;0
72918;PMS7003;61063;55.700;26.994;2022-10-31T03:24:43;0.1;0;0
72918;PMS7003;61063;55.700;26.994;2022-10-31T03:29:43;1.1;0;0
72918;PMS7003;61063;55.700;26.994;2022-10-31T03:34:43;0.5;0;0
72918;PMS7003;61063;55.700;26.994;2022-10-31T03:39:29;0.6;0;0
72918;PMS7003;61063;55.700;26.994;2022-10-31T03:44:17;0.3;0;0
72918;PMS7003;61063;55.700;26.994;2022-10-31T03:49:17;0.2;0;0
72918;PMS7003;61063;55.700;26.994;2022-10-31T03:54:07;0.3;0;0
72918;PMS7003;61063;55.700;26.994;2022-10-31T03:59:44;0.5;0;0
72918;PMS7003;61063;55.700;26.994;2022-10-31T04:04:43;0.3;0.1;0
72918;PMS7003;61063;55.700;26.994;2022-10-31T04:09:29;0.3;0;0
72918;PMS7003;61063;55.700;26.994;2022-10-31T04:14:27;0.2;0;0
72918;PMS7003;61063;55.700;26.994;2022-10-31T04:19:05;0.1;0;0
72918;PMS7003;61063;55.700;26.994;2022-10-31T04:24:31;0.3;0;0
72918;PMS7003;61063;55.700;26.994;2022-10-31T04:29:17;0.1;0;0
72918;PMS7003;61063;55.700;26.994;2022-10-31T04:34:43;0.3;0;0
72918;PMS7003;61063;55.700;26.994;2022-10-31T04:39:01;0.1;0;0
72918;PMS7003;61063;55.700;26.994;2022-10-31T04:44:05;0.1;0;0
72918;PMS7003;61063;55.700;26.994;2022-10-31T04:49:05;0;0;0
72918;PMS7003;61063;55.700;26.994;2022-10-31T04:54:29;0.7;0;0
72918;PMS7003;61063;55.700;26.994;2022-10-31T04:59:43;0.3;0;0
72918;PMS7003;61063;55.700;26.994;2022-10-31T05:04:29;0.4;0;0
72918;PMS7003;61063;55.700;26.994;2022-10-31T05:09:05;0.2;0;0
72918;PMS7003;61063;55.700;26.994;2022-10-31T05:14:43;0;0;0
72918;PMS7003;61063;55.700;26.994;2022-10-31T05:19:43;0.3;0.1;0
72918;PMS7003;61063;55.700;26.994;2022-10-31T05:24:29;0.7;0;0
72918;PMS7003;61063;55.700;26.994;2022-10-31T05:29:15;0.5;0;0
72918;PMS7003;61063;55.700;26.994;2022-10-31T05:34:19;0.6;0;0
72918;PMS7003;61063;55.700;26.994;2022-10-31T05:39:41;0.1;0.1;0
72918;PMS7003;61063;55.700;26.994;2022-10-31T05:44:07;0.4;0;0
72918;PMS7003;61063;55.700;26.994;2022-10-31T05:49:45;0.5;0;0
72918;PMS7003;61063;55.700;26.994;2022-10-31T05:54:45;0.1;0;0
72918;PMS7003;61063;55.700;26.994;2022-10-31T05:59:07;0.4;0;0
72918;PMS7003;61063;55.700;26.994;2022-10-31T06:04:19;0.4;0;0
72918;PMS7003;61063;55.700;26.994;2022-10-31T06:09:29;0.4;0;0
72918;PMS7003;61063;55.700;26.994;2022-10-31T06:14:17;0.2;0;0
72918;PMS7003;61063;55.700;26.994;2022-10-31T06:19:45;0.5;0;0
72918;PMS7003;61063;55.700;26.994;2022-10-31T06:24:45;0.2;0;0
72918;PMS7003;61063;55.700;26.994;2022-10-31T06:29:43;0.4;0;0
72918;PMS7003;61063;55.700;26.994;2022-10-31T06:34:43;0.3;0.1;0
72918;PMS7003;61063;55.700;26.994;2022-10-31T06:39:27;0.3;0;0
72918;PMS7003;61063;55.700;26.994;2022-10-31T06:44:27;0.7;0;0
72918;PMS7003;61063;55.700;26.994;2022-10-31T06:49:45;0.6;0;0
72918;PMS7003;61063;55.700;26.994;2022-10-31T06:54:45;0.2;0;0
72918;PMS7003;61063;55.700;26.994;2022-10-31T06:59:07;0.5;0;0
72918;PMS7003;61063;55.700;26.994;2022-10-31T07:04:45;1;0;0
72918;PMS7003;61063;55.700;26.994;2022-10-31T07:09:03;0.7;0;0
72918;PMS7003;61063;55.700;26.994;2022-10-31T07:14:07;0.6;0.2;0
72918;PMS7003;61063;55.700;26.994;2022-10-31T07:19:19;1;0.1;0
72918;PMS7003;61063;55.700;26.994;2022-10-31T07:24:31;0.7;0;0
72918;PMS7003;61063;55.700;26.994;2022-10-31T07:29:19;0.6;0.1;0.1
72918;PMS7003;61063;55.700;26.994;2022-10-31T07:34:31;0.4;0.1;0.1
72918;PMS7003;61063;55.700;26.994;2022-10-31T07:39:43;0.9;0.2;0.1
72918;PMS7003;61063;55.700;26.994;2022-10-31T07:44:43;0.5;0;0
72918;PMS7003;61063;55.700;26.994;2022-10-31T07:49:43;0.2;0.1;0
72918;PMS7003;61063;55.700;26.994;2022-10-31T07:54:29;1;0.1;0
72918;PMS7003;61063;55.700;26.994;2022-10-31T07:59:29;0.5;0;0
72918;PMS7003;61063;55.700;26.994;2022-10-31T08:04:07;0.4;0;0
72918;PMS7003;61063;55.700;26.994;2022-10-31T08:09:45;0.6;0;0
72918;PMS7003;61063;55.700;26.994;2022-10-31T08:14:19;0.3;0;0
72918;PMS7003;61063;55.700;26.994;2022-10-31T08:19:45;0.6;0.1;0.1
72918;PMS7003;61063;55.700;26.994;2022-10-31T08:24:03;0.2;0;0
72918;PMS7003;61063;55.700;26.994;2022-10-31T08:29:05;0.4;0;0
72918;PMS7003;61063;55.700;26.994;2022-10-31T08:34:29;0.3;0;0
72918;PMS7003;61063;55.700;26.994;2022-10-31T08:39:19;0.2;0;0
72918;PMS7003;61063;55.700;26.994;2022-10-31T08:44:45;0.3;0;0
72918;PMS7003;61063;55.700;26.994;2022-10-31T08:49:45;0.3;0;0
72918;PMS7003;61063;55.700;26.994;2022-10-31T08:54:45;1;0;0
72918;PMS7003;61063;55.700;26.994;2022-10-31T08:59:31;0.3;0;0
72918;PMS7003;61063;55.700;26.994;2022-10-31T09:04:45;0.1;0.1;0
72918;PMS7003;61063;55.700;26.994;2022-10-31T09:09:33;0.6;0;0
72918;PMS7003;61063;55.700;26.994;2022-10-31T09:14:17;0.3;0;0
72918;PMS7003;61063;55.700;26.994;2022-10-31T09:19:07;0.2;0;0
72918;PMS7003;61063;55.700;26.994;2022-10-31T09:24:19;0.2;0;0
72918;PMS7003;61063;55.700;26.994;2022-10-31T09:29:45;1;0;0
72918;PMS7003;61063;55.700;26.994;2022-10-31T09:34:19;0.3;0.1;0.1
72918;PMS7003;61063;55.700;26.994;2022-10-31T09:39:45;0.1;0;0
72918;PMS7003;61063;55.700;26.994;2022-10-31T09:44:07;0.4;0;0
72918;PMS7003;61063;55.700;26.994;2022-10-31T09:49:24;0.5;0.1;0
72918;PMS7003;61063;55.700;26.994;2022-10-31T09:54:20;0.6;0.1;0
72918;PMS7003;61063;55.700;26.994;2022-10-31T09:59:45;0.3;0;0
72918;PMS7003;61063;55.700;26.994;2022-10-31T10:04:47;0.2;0;0
72918;PMS7003;61063;55.700;26.994;2022-10-31T10:09:07;0.2;0;0
72918;PMS7003;61063;55.700;26.994;2022-10-31T10:14:13;0.3;0;0
72918;PMS7003;61063;55.700;26.994;2022-10-31T10:19:40;0.6;0;0
72918;PMS7003;61063;55.700;26.994;2022-10-31T10:24:36;0.7;0;0
72918;PMS7003;61063;55.700;26.994;2022-10-31T10:29:33;0.1;0;0
72918;PMS7003;61063;55.700;26.994;2022-10-31T10:34:07;0.5;0;0
72918;PMS7003;61063;55.700;26.994;2022-10-31T10:39:08;0.2;0;0
72918;PMS7003;61063;55.700;26.994;2022-10-31T10:44:45;0.3;0;0
72918;PMS7003;61063;55.700;26.994;2022-10-31T10:49:12;0.8;0.1;0
72918;PMS7003;61063;55.700;26.994;2022-10-31T10:54:46;0.2;0;0
72918;PMS7003;61063;55.700;26.994;2022-10-31T10:59:06;0.4;0;0
72918;PMS7003;61063;55.700;26.994;2022-10-31T11:04:26;0.9;0;0
72918;PMS7003;61063;55.700;26.994;2022-10-31T11:09:45;0.7;0;0
72918;PMS7003;61063;55.700;26.994;2022-10-31T11:14:45;0.6;0;0
72918;PMS7003;61063;55.700;26.994;2022-10-31T11:19:45;0.1;0;0
72918;PMS7003;61063;55.700;26.994;2022-10-31T11:24:17;0.1;0;0
72918;PMS7003;61063;55.700;26.994;2022-10-31T11:29:22;0.3;0;0
72918;PMS7003;61063;55.700;26.994;2022-10-31T11:34:32;0.7;0;0
72918;PMS7003;61063;55.700;26.994;2022-10-31T11:39:31;0.3;0;0
72918;PMS7003;61063;55.700;26.994;2022-10-31T11:44:17;0.6;0;0
72918;PMS7003;61063;55.700;26.994;2022-10-31T11:49:45;0.2;0;0
72918;PMS7003;61063;55.700;26.994;2022-10-31T11:54:20;0.8;0;0
72918;PMS7003;61063;55.700;26.994;2022-10-31T11:59:33;0.5;0;0
72918;PMS7003;61063;55.700;26.994;2022-10-31T12:04:07;0.4;0;0
72918;PMS7003;61063;55.700;26.994;2022-10-31T12:09:45;0.2;0;0
72918;PMS7003;61063;55.700;26.994;2022-10-31T12:14:11;0.5;0;0
72918;PMS7003;61063;55.700;26.994;2022-10-31T12:19:34;0.3;0;0
72918;PMS7003;61063;55.700;26.994;2022-10-31T12:24:35;0.7;0;0
72918;PMS7003;61063;55.700;26.994;2022-10-31T12:29:50;0.5;0;0
72918;PMS7003;61063;55.700;26.994;2022-10-31T12:34:48;0.6;0;0
72918;PMS7003;61063;55.700;26.994;2022-10-31T12:39:19;0.1;0;0
72918;PMS7003;61063;55.700;26.994;2022-10-31T12:44:40;0.5;0;0
72918;PMS7003;61063;55.700;26.994;2022-10-31T12:49:21;0.7;0.1;0
72918;PMS7003;61063;55.700;26.994;2022-10-31T12:54:37;0.2;0;0
72918;PMS7003;61063;55.700;26.994;2022-10-31T12:59:18;0.4;0;0
72918;PMS7003;61063;55.700;26.994;2022-10-31T13:04:10;0.5;0;0
72918;PMS7003;61063;55.700;26.994;2022-10-31T13:09:47;0.5;0.1;0.1
72918;PMS7003;61063;55.700;26.994;2022-10-31T13:14:47;0.1;0;0
72918;PMS7003;61063;55.700;26.994;2022-10-31T13:19:20;0.3;0;0
72918;PMS7003;61063;55.700;26.994;2022-10-31T13:24:32;0.4;0.1;0
72918;PMS7003;61063;55.700;26.994;2022-10-31T13:29:48;0.2;0;0
72918;PMS7003;61063;55.700;26.994;2022-10-31T13:34:22;0.7;0;0
72918;PMS7003;61063;55.700;26.994;2022-10-31T13:39:48;0.3;0;0
72918;PMS7003;61063;55.700;26.994;2022-10-31T13:44:34;0.6;0;0
72918;PMS7003;61063;55.700;26.994;2022-10-31T13:49:45;0.4;0.1;0.1
72918;PMS7003;61063;55.700;26.994;2022-10-31T13:54:46;0.1;0.1;0.1
72918;PMS7003;61063;55.700;26.994;2022-10-31T13:59:47;0.1;0;0
72918;PMS7003;61063;55.700;26.994;2022-10-31T14:04:32;0.5;0;0
72918;PMS7003;61063;55.700;26.994;2022-10-31T14:09:31;0.2;0;0
72918;PMS7003;61063;55.700;26.994;2022-10-31T14:14:33;0.5;0;0
72918;PMS7003;61063;55.700;26.994;2022-10-31T14:19:55;0.3;0;0
72918;PMS7003;61063;55.700;26.994;2022-10-31T14:24:28;0.5;0;0
72918;PMS7003;61063;55.700;26.994;2022-10-31T14:29:45;0.7;0;0
72918;PMS7003;61063;55.700;26.994;2022-10-31T14:34:51;0.3;0;0
72918;PMS7003;61063;55.700;26.994;2022-10-31T14:39:46;0.3;0;0
72918;PMS7003;61063;55.700;26.994;2022-10-31T14:44:15;0.6;0;0
72918;PMS7003;61063;55.700;26.994;2022-10-31T14:49:50;0.5;0;0
72918;PMS7003;61063;55.700;26.994;2022-10-31T14:54:19;0.5;0;0
72918;PMS7003;61063;55.700;26.994;2022-10-31T14:59:32;0.5;0;0
72918;PMS7003;61063;55.700;26.994;2022-10-31T15:04:43;0.3;0;0
72918;PMS7003;61063;55.700;26.994;2022-10-31T15:09:45;0.4;0;0
72918;PMS7003;61063;55.700;26.994;2022-10-31T15:14:17;0.3;0;0
72918;PMS7003;61063;55.700;26.994;2022-10-31T15:19:32;0.1;0;0
72918;PMS7003;61063;55.700;26.994;2022-10-31T15:24:34;0.4;0;0
72918;PMS7003;61063;55.700;26.994;2022-10-31T15:29:11;0.3;0.1;0.1
72918;PMS7003;61063;55.700;26.994;2022-10-31T15:34:13;0.7;0.1;0.1
72918;PMS7003;61063;55.700;26.994;2022-10-31T15:39:09;0.6;0;0
72918;PMS7003;61063;55.700;26.994;2022-10-31T15:44:46;0.7;0.1;0
72918;PMS7003;61063;55.700;26.994;2022-10-31T15:49:10;0.4;0.1;0
72918;PMS7003;61063;55.700;26.994;2022-10-31T15:54:43;0.9;0.3;0
72918;PMS7003;61063;55.700;26.994;2022-10-31T15:59:45;0.3;0;0
72918;PMS7003;61063;55.700;26.994;2022-10-31T16:04:52;0.7;0;0
72918;PMS7003;61063;55.700;26.994;2022-10-31T16:09:18;0.3;0.1;0
72918;PMS7003;61063;55.700;26.994;2022-10-31T16:14:30;0.9;0.3;0.1
72918;PMS7003;61063;55.700;26.994;2022-10-31T16:19:46;1;0.4;0.1
72918;PMS7003;61063;55.700;26.994;2022-10-31T16:24:04;1.2;0.4;0.3
72918;PMS7003;61063;55.700;26.994;2022-10-31T16:29:44;1.5;0.4;0.2
72918;PMS7003;61063;55.700;26.994;2022-10-31T16:34:29;1;0.3;0.2
72918;PMS7003;61063;55.700;26.994;2022-10-31T16:39:07;0.8;0.6;0.3
72918;PMS7003;61063;55.700;26.994;2022-10-31T16:44:39;0.8;0.5;0.3
72918;PMS7003;61063;55.700;26.994;2022-10-31T16:49:07;1.2;0.5;0.2
72918;PMS7003;61063;55.700;26.994;2022-10-31T16:54:05;1;0.2;0.1
72918;PMS7003;61063;55.700;26.994;2022-10-31T16:59:43;0.3;0.2;0.1
72918;PMS7003;61063;55.700;26.994;2022-10-31T17:04:17;0.6;0.2;0.1
72918;PMS7003;61063;55.700;26.994;2022-10-31T17:09:43;1.2;0.2;0.1
72918;PMS7003;61063;55.700;26.994;2022-10-31T17:14:05;0.5;0.2;0.1
72918;PMS7003;61063;55.700;26.994;2022-10-31T17:18:55;0.4;0.1;0.1
72918;PMS7003;61063;55.700;26.994;2022-10-31T17:24:17;0.7;0;0
72918;PMS7003;61063;55.700;26.994;2022-10-31T17:29:27;0.7;0.1;0.1
72918;PMS7003;61063;55.700;26.994;2022-10-31T17:34:29;0.4;0.1;0
72918;PMS7003;61063;55.700;26.994;2022-10-31T17:39:43;0.5;0.2;0
72918;PMS7003;61063;55.700;26.994;2022-10-31T17:44:05;0.8;0.1;0
72918;PMS7003;61063;55.700;26.994;2022-10-31T17:49:43;0.5;0;0
72918;PMS7003;61063;55.700;26.994;2022-10-31T17:54:31;0.3;0.1;0
72918;PMS7003;61063;55.700;26.994;2022-10-31T17:59:43;0.6;0.1;0
72918;PMS7003;61063;55.700;26.994;2022-10-31T18:04:29;0.4;0.1;0
72918;PMS7003;61063;55.700;26.994;2022-10-31T18:09:05;0.9;0.1;0
72918;PMS7003;61063;55.700;26.994;2022-10-31T18:14:43;0.9;0;0
72918;PMS7003;61063;55.700;26.994;2022-10-31T18:19:17;0.6;0.1;0
72918;PMS7003;61063;55.700;26.994;2022-10-31T18:24:29;0.7;0.1;0.1
72918;PMS7003;61063;55.700;26.994;2022-10-31T18:29:13;0.6;0.1;0.1
72918;PMS7003;61063;55.700;26.994;2022-10-31T18:34:05;0.7;0.3;0
72918;PMS7003;61063;55.700;26.994;2022-10-31T18:39:17;1.1;0.3;0.1
72918;PMS7003;61063;55.700;26.994;2022-10-31T18:44:29;1;0.1;0.1
72918;PMS7003;61063;55.700;26.994;2022-10-31T18:49:29;0.3;0;0
72918;PMS7003;61063;55.700;26.994;2022-10-31T18:54:41;0.5;0.1;0
72918;PMS7003;61063;55.700;26.994;2022-10-31T18:59:19;1.1;0.2;0.1
72918;PMS7003;61063;55.700;26.994;2022-10-31T19:04:43;0.5;0.2;0.1
72918;PMS7003;61063;55.700;26.994;2022-10-31T19:09:29;0.9;0.3;0.1
72918;PMS7003;61063;55.700;26.994;2022-10-31T19:14:43;1.3;0.4;0.2
72918;PMS7003;61063;55.700;26.994;2022-10-31T19:19:30;0.7;0.5;0.2
72918;PMS7003;61063;55.700;26.994;2022-10-31T19:24:05;1.2;0.7;0.5
72918;PMS7003;61063;55.700;26.994;2022-10-31T19:29:43;1.1;0.7;0.5
72918;PMS7003;61063;55.700;26.994;2022-10-31T19:34:43;1.1;0.7;0.4
72918;PMS7003;61063;55.700;26.994;2022-10-31T19:39:41;1.6;0.7;0.5
72918;PMS7003;61063;55.700;26.994;2022-10-31T19:44:15;1.6;0.8;0.5
72918;PMS7003;61063;55.700;26.994;2022-10-31T19:49:43;1.3;0.9;0.6
72918;PMS7003;61063;55.700;26.994;2022-10-31T19:54:43;1.3;0.8;0.6
72918;PMS7003;61063;55.700;26.994;2022-10-31T19:59:29;1.8;0.9;0.7
72918;PMS7003;61063;55.700;26.994;2022-10-31T20:04:27;1.8;0.8;0.6
72918;PMS7003;61063;55.700;26.994;2022-10-31T20:09:39;1.6;1;0.6
72918;PMS7003;61063;55.700;26.994;2022-10-31T20:14:16;1.7;0.8;0.5
72918;PMS7003;61063;55.700;26.994;2022-10-31T20:19:43;1.4;0.8;0.6
72918;PMS7003;61063;55.700;26.994;2022-10-31T20:24:31;1.5;0.7;0.4
72918;PMS7003;61063;55.700;26.994;2022-10-31T20:29:03;1.1;0.6;0.4
72918;PMS7003;61063;55.700;26.994;2022-10-31T20:34:43;1.3;0.9;0.6
72918;PMS7003;61063;55.700;26.994;2022-10-31T20:39:03;0.8;0.5;0.4
72918;PMS7003;61063;55.700;26.994;2022-10-31T20:44:43;1.1;0.6;0.3
72918;PMS7003;61063;55.700;26.994;2022-10-31T20:49:43;1.1;0.8;0.6
72918;PMS7003;61063;55.700;26.994;2022-10-31T20:54:43;1.5;0.6;0.4
72918;PMS7003;61063;55.700;26.994;2022-10-31T20:59:15;1.7;0.6;0.5
72918;PMS7003;61063;55.700;26.994;2022-10-31T21:04:43;1.2;0.8;0.6
72918;PMS7003;61063;55.700;26.994;2022-10-31T21:09:05;1.4;0.6;0.3
72918;PMS7003;61063;55.700;26.994;2022-10-31T21:14:29;1.3;0.7;0.4
72918;PMS7003;61063;55.700;26.994;2022-10-31T21:19:29;1.2;0.6;0.5
72918;PMS7003;61063;55.700;26.994;2022-10-31T21:24:43;1.7;0.8;0.4
72918;PMS7003;61063;55.700;26.994;2022-10-31T21:29:31;1.3;0.7;0.5
72918;PMS7003;61063;55.700;26.994;2022-10-31T21:34:43;1.9;0.7;0.6
72918;PMS7003;61063;55.700;26.994;2022-10-31T21:39:31;1.2;0.6;0.3
72918;PMS7003;61063;55.700;26.994;2022-10-31T21:43:55;1.6;0.9;0.6
72918;PMS7003;61063;55.700;26.994;2022-10-31T21:49:29;1.5;0.7;0.5
72918;PMS7003;61063;55.700;26.994;2022-10-31T21:54:05;1.2;0.9;0.6
72918;PMS7003;61063;55.700;26.994;2022-10-31T21:59:39;0.9;0.8;0.7
72918;PMS7003;61063;55.700;26.994;2022-10-31T22:04:25;1.4;0.7;0.5
72918;PMS7003;61063;55.700;26.994;2022-10-31T22:09:37;2.1;1;0.8
72918;PMS7003;61063;55.700;26.994;2022-10-31T22:14:12;1.7;1.1;0.7
72918;PMS7003;61063;55.700;26.994;2022-10-31T22:19:39;1.1;0.8;0.5
72918;PMS7003;61063;55.700;26.994;2022-10-31T22:24:01;1.6;0.6;0.4
72918;PMS7003;61063;55.700;26.994;2022-10-31T22:29:23;2.1;1;0.7
72918;PMS7003;61063;55.700;26.994;2022-10-31T22:34:31;1.3;0.9;0.7
72918;PMS7003;61063;55.700;26.994;2022-10-31T22:39:37;1.2;0.9;0.7
72918;PMS7003;61063;55.700;26.994;2022-10-31T22:44:27;1.9;1.1;0.7
72918;PMS7003;61063;55.700;26.994;2022-10-31T22:49:39;1.7;0.9;0.7
72918;PMS7003;61063;55.700;26.994;2022-10-31T22:54:27;1.9;1.2;0.9
72918;PMS7003;61063;55.700;26.994;2022-10-31T22:59:09;1.9;0.7;0.5
72918;PMS7003;61063;55.700;26.994;2022-10-31T23:04:25;1.6;1.1;0.8
72918;PMS7003;61063;55.700;26.994;2022-10-31T23:09:39;1.8;0.9;0.6
72918;PMS7003;61063;55.700;26.994;2022-10-31T23:14:39;1.7;0.7;0.5
72918;PMS7003;61063;55.700;26.994;2022-10-31T23:19:39;2;0.8;0.5
72918;PMS7003;61063;55.700;26.994;2022-10-31T23:24:38;1.8;1.2;0.9
72918;PMS7003;61063;55.700;26.994;2022-10-31T23:29:11;1;0.9;0.8
72918;PMS7003;61063;55.700;26.994;2022-10-31T23:34:27;1.4;0.9;0.7
72918;PMS7003;61063;55.700;26.994;2022-10-31T23:39:11;2.1;1.1;0.8
72918;PMS7003;61063;55.700;26.994;2022-10-31T23:44:23;1.4;0.9;0.7
72918;PMS7003;61063;55.700;26.994;2022-10-31T23:49:23;1.2;0.8;0.6
72918;PMS7003;61063;55.700;26.994;2022-10-31T23:54:35;1.9;1.2;1
72918;PMS7003;61063;55.700;26.994;2022-10-31T23:59:37;1.5;1.1;0.8
